Anshan, China
Current Conditions -  °F | °C
As of 11:00 AM on Thursday 23 Oct 2014 (Local Time) from ZYTX Reporting Station
Overcast Overcast  
Wind Chill: 59°   Ceiling: 3300
Heat Index: 59°   Visibility: 5mi
Dew Point: 41°   Wind: 13mph
Humidity: 51%   Direction: 180°S
Pressure: 29.97"   Gusts: NA
Location:  41.12°N, 122.95°E
Report Text: ZYTX 230300Z 18006MPS 150V210 8000 OVC033 15/05 Q1015 NOSIG
Loading
Personal Weather Stations






























Interactive Weather Map New forecast layout! Learn more

10-Day Weather Forecast

Advertisements
Track Severe Weather on mobile